Jiggiga, Ethiopia
Current Conditions -  °F | °C
As of 1:55 PM on Saturday 20 Dec 2014 (Local Time) from KQRH Reporting Station
Few Clouds Few Clouds  
Wind Chill: 83°   Ceiling: Unl
Heat Index: 84°   Visibility: 6mi
Dew Point: 63°   Wind: 12mph
Humidity: 50%   Direction: 100°E
Pressure: 30.03"   Gusts: 21mph
Location:  9.33°N, 42.8°E
Report Text: KQRH 201055Z AUTO 10010G18KT 9999 FEW220 28/17 A3003 RMK AO2 SLP168 T02840172
Loading
Personal Weather Stations






























Interactive Weather Map New forecast layout! Learn more

10-Day Weather Forecast

Advertisements
Track Severe Weather on mobile